sensor_id;sensor_type;location;lat;lon;timestamp;P1;durP1;ratioP1;P2;durP2;ratioP2
18125;SDS011;53956;52.442;13.284;2023-04-09T00:00:01;41.07;;;27.77;;
18125;SDS011;53956;52.442;13.284;2023-04-09T00:02:37;42.17;;;27.70;;
18125;SDS011;53956;52.442;13.284;2023-04-09T00:05:05;39.87;;;27.90;;
18125;SDS011;53956;52.442;13.284;2023-04-09T00:07:32;43.20;;;27.60;;
18125;SDS011;53956;52.442;13.284;2023-04-09T00:09:59;40.93;;;27.87;;
18125;SDS011;53956;52.442;13.284;2023-04-09T00:12:26;45.13;;;29.20;;
18125;SDS011;53956;52.442;13.284;2023-04-09T00:14:54;41.17;;;27.77;;
18125;SDS011;53956;52.442;13.284;2023-04-09T00:17:21;41.00;;;27.43;;
18125;SDS011;53956;52.442;13.284;2023-04-09T00:19:47;41.03;;;28.17;;
18125;SDS011;53956;52.442;13.284;2023-04-09T00:22:15;53.27;;;28.03;;
18125;SDS011;53956;52.442;13.284;2023-04-09T00:24:42;42.17;;;28.23;;
18125;SDS011;53956;52.442;13.284;2023-04-09T00:27:09;42.43;;;28.07;;
18125;SDS011;53956;52.442;13.284;2023-04-09T00:29:35;40.33;;;27.97;;
18125;SDS011;53956;52.442;13.284;2023-04-09T00:32:02;40.10;;;27.00;;
18125;SDS011;53956;52.442;13.284;2023-04-09T00:34:28;42.83;;;28.63;;
18125;SDS011;53956;52.442;13.284;2023-04-09T00:36:55;43.77;;;27.63;;
18125;SDS011;53956;52.442;13.284;2023-04-09T00:39:23;45.83;;;28.70;;
18125;SDS011;53956;52.442;13.284;2023-04-09T00:41:54;39.87;;;27.50;;
18125;SDS011;53956;52.442;13.284;2023-04-09T00:44:21;40.53;;;27.30;;
18125;SDS011;53956;52.442;13.284;2023-04-09T00:46:48;42.47;;;28.10;;
18125;SDS011;53956;52.442;13.284;2023-04-09T00:49:15;45.57;;;28.90;;
18125;SDS011;53956;52.442;13.284;2023-04-09T00:51:42;42.80;;;28.53;;
18125;SDS011;53956;52.442;13.284;2023-04-09T00:54:10;41.73;;;27.20;;
18125;SDS011;53956;52.442;13.284;2023-04-09T00:56:38;44.13;;;28.97;;
18125;SDS011;53956;52.442;13.284;2023-04-09T00:59:07;41.97;;;27.57;;
18125;SDS011;53956;52.442;13.284;2023-04-09T01:01:33;41.20;;;26.77;;
18125;SDS011;53956;52.442;13.284;2023-04-09T01:04:00;40.17;;;27.27;;
18125;SDS011;53956;52.442;13.284;2023-04-09T01:06:30;41.20;;;28.03;;
18125;SDS011;53956;52.442;13.284;2023-04-09T01:09:05;41.20;;;28.13;;
18125;SDS011;53956;52.442;13.284;2023-04-09T01:11:37;43.30;;;27.93;;
18125;SDS011;53956;52.442;13.284;2023-04-09T01:14:11;39.63;;;26.00;;
18125;SDS011;53956;52.442;13.284;2023-04-09T01:17:04;40.80;;;26.90;;
18125;SDS011;53956;52.442;13.284;2023-04-09T01:19:40;44.90;;;27.30;;
18125;SDS011;53956;52.442;13.284;2023-04-09T01:22:13;42.63;;;27.90;;
18125;SDS011;53956;52.442;13.284;2023-04-09T01:24:54;40.57;;;27.27;;
18125;SDS011;53956;52.442;13.284;2023-04-09T01:27:38;42.57;;;29.07;;
18125;SDS011;53956;52.442;13.284;2023-04-09T01:30:13;40.73;;;26.80;;
18125;SDS011;53956;52.442;13.284;2023-04-09T01:32:42;41.33;;;27.67;;
18125;SDS011;53956;52.442;13.284;2023-04-09T01:35:09;41.20;;;27.97;;
18125;SDS011;53956;52.442;13.284;2023-04-09T01:37:36;39.80;;;26.33;;
18125;SDS011;53956;52.442;13.284;2023-04-09T01:40:04;41.43;;;27.07;;
18125;SDS011;53956;52.442;13.284;2023-04-09T01:42:32;44.87;;;27.67;;
18125;SDS011;53956;52.442;13.284;2023-04-09T01:45:01;38.90;;;27.23;;
18125;SDS011;53956;52.442;13.284;2023-04-09T01:47:30;40.17;;;27.33;;
18125;SDS011;53956;52.442;13.284;2023-04-09T01:49:58;42.20;;;27.87;;
18125;SDS011;53956;52.442;13.284;2023-04-09T01:52:25;40.60;;;28.30;;
18125;SDS011;53956;52.442;13.284;2023-04-09T01:54:52;41.23;;;27.03;;
18125;SDS011;53956;52.442;13.284;2023-04-09T01:57:19;42.63;;;28.97;;
18125;SDS011;53956;52.442;13.284;2023-04-09T01:59:45;43.07;;;28.07;;
18125;SDS011;53956;52.442;13.284;2023-04-09T02:02:14;44.23;;;28.60;;
18125;SDS011;53956;52.442;13.284;2023-04-09T02:04:47;42.83;;;28.77;;
18125;SDS011;53956;52.442;13.284;2023-04-09T02:07:17;44.03;;;28.63;;
18125;SDS011;53956;52.442;13.284;2023-04-09T02:09:52;42.40;;;28.27;;
18125;SDS011;53956;52.442;13.284;2023-04-09T02:12:20;42.97;;;28.57;;
18125;SDS011;53956;52.442;13.284;2023-04-09T02:14:47;43.83;;;29.10;;
18125;SDS011;53956;52.442;13.284;2023-04-09T02:17:17;42.87;;;28.50;;
18125;SDS011;53956;52.442;13.284;2023-04-09T02:19:45;40.60;;;27.07;;
18125;SDS011;53956;52.442;13.284;2023-04-09T02:22:14;39.27;;;26.87;;
18125;SDS011;53956;52.442;13.284;2023-04-09T02:24:41;40.30;;;27.03;;
18125;SDS011;53956;52.442;13.284;2023-04-09T02:27:08;42.43;;;27.30;;
18125;SDS011;53956;52.442;13.284;2023-04-09T02:29:37;43.73;;;28.70;;
18125;SDS011;53956;52.442;13.284;2023-04-09T02:32:04;43.93;;;28.97;;
18125;SDS011;53956;52.442;13.284;2023-04-09T02:34:31;45.83;;;28.70;;
18125;SDS011;53956;52.442;13.284;2023-04-09T02:36:59;42.47;;;28.30;;
18125;SDS011;53956;52.442;13.284;2023-04-09T02:39:26;41.60;;;28.00;;
18125;SDS011;53956;52.442;13.284;2023-04-09T02:41:53;42.43;;;28.50;;
18125;SDS011;53956;52.442;13.284;2023-04-09T02:44:20;42.37;;;27.77;;
18125;SDS011;53956;52.442;13.284;2023-04-09T02:46:47;43.60;;;28.20;;
18125;SDS011;53956;52.442;13.284;2023-04-09T02:49:15;41.97;;;28.47;;
18125;SDS011;53956;52.442;13.284;2023-04-09T02:51:42;39.80;;;26.53;;
18125;SDS011;53956;52.442;13.284;2023-04-09T02:54:11;42.50;;;28.47;;
18125;SDS011;53956;52.442;13.284;2023-04-09T02:56:37;42.10;;;27.00;;
18125;SDS011;53956;52.442;13.284;2023-04-09T02:59:04;42.67;;;27.77;;
18125;SDS011;53956;52.442;13.284;2023-04-09T03:01:31;40.57;;;27.00;;
18125;SDS011;53956;52.442;13.284;2023-04-09T03:03:58;41.73;;;27.70;;
18125;SDS011;53956;52.442;13.284;2023-04-09T03:06:25;43.20;;;27.73;;
18125;SDS011;53956;52.442;13.284;2023-04-09T03:08:52;42.87;;;27.83;;
18125;SDS011;53956;52.442;13.284;2023-04-09T03:11:20;41.67;;;28.27;;
18125;SDS011;53956;52.442;13.284;2023-04-09T03:13:47;42.27;;;27.33;;
18125;SDS011;53956;52.442;13.284;2023-04-09T03:16:13;41.93;;;28.03;;
18125;SDS011;53956;52.442;13.284;2023-04-09T03:18:40;43.60;;;28.93;;
18125;SDS011;53956;52.442;13.284;2023-04-09T03:21:07;45.27;;;29.60;;
18125;SDS011;53956;52.442;13.284;2023-04-09T03:23:39;46.43;;;29.47;;
18125;SDS011;53956;52.442;13.284;2023-04-09T03:26:06;42.07;;;28.10;;
18125;SDS011;53956;52.442;13.284;2023-04-09T03:28:42;44.10;;;29.00;;
18125;SDS011;53956;52.442;13.284;2023-04-09T03:31:09;42.53;;;27.93;;
18125;SDS011;53956;52.442;13.284;2023-04-09T03:33:39;46.43;;;29.70;;
18125;SDS011;53956;52.442;13.284;2023-04-09T03:36:07;47.30;;;28.70;;
18125;SDS011;53956;52.442;13.284;2023-04-09T03:38:57;42.33;;;27.83;;
18125;SDS011;53956;52.442;13.284;2023-04-09T03:41:29;40.77;;;26.90;;
18125;SDS011;53956;52.442;13.284;2023-04-09T03:44:00;42.20;;;27.70;;
18125;SDS011;53956;52.442;13.284;2023-04-09T03:46:31;40.57;;;27.17;;
18125;SDS011;53956;52.442;13.284;2023-04-09T03:48:59;41.50;;;26.57;;
18125;SDS011;53956;52.442;13.284;2023-04-09T03:51:35;38.43;;;26.17;;
18125;SDS011;53956;52.442;13.284;2023-04-09T03:54:02;40.50;;;26.70;;
18125;SDS011;53956;52.442;13.284;2023-04-09T03:56:29;39.37;;;26.50;;
18125;SDS011;53956;52.442;13.284;2023-04-09T03:58:56;40.40;;;27.37;;
18125;SDS011;53956;52.442;13.284;2023-04-09T04:01:33;44.70;;;28.60;;
18125;SDS011;53956;52.442;13.284;2023-04-09T04:04:00;42.53;;;27.83;;
18125;SDS011;53956;52.442;13.284;2023-04-09T04:06:33;46.17;;;27.53;;
18125;SDS011;53956;52.442;13.284;2023-04-09T04:09:20;44.53;;;27.47;;
18125;SDS011;53956;52.442;13.284;2023-04-09T04:11:52;45.37;;;29.43;;
18125;SDS011;53956;52.442;13.284;2023-04-09T04:14:23;45.90;;;29.37;;
18125;SDS011;53956;52.442;13.284;2023-04-09T04:16:57;44.90;;;29.57;;
18125;SDS011;53956;52.442;13.284;2023-04-09T04:19:27;45.27;;;30.07;;
18125;SDS011;53956;52.442;13.284;2023-04-09T04:21:55;48.17;;;30.30;;
18125;SDS011;53956;52.442;13.284;2023-04-09T04:24:22;46.37;;;29.67;;
18125;SDS011;53956;52.442;13.284;2023-04-09T04:26:49;47.83;;;29.57;;
18125;SDS011;53956;52.442;13.284;2023-04-09T04:29:18;47.37;;;29.97;;
18125;SDS011;53956;52.442;13.284;2023-04-09T04:31:50;46.73;;;29.80;;
18125;SDS011;53956;52.442;13.284;2023-04-09T04:34:21;50.33;;;31.27;;
18125;SDS011;53956;52.442;13.284;2023-04-09T04:36:56;47.17;;;30.23;;
18125;SDS011;53956;52.442;13.284;2023-04-09T04:39:23;46.60;;;30.77;;
18125;SDS011;53956;52.442;13.284;2023-04-09T04:41:56;48.53;;;30.87;;
18125;SDS011;53956;52.442;13.284;2023-04-09T04:44:25;44.10;;;29.83;;
18125;SDS011;53956;52.442;13.284;2023-04-09T04:47:04;46.93;;;30.50;;
18125;SDS011;53956;52.442;13.284;2023-04-09T04:49:32;46.30;;;29.80;;
18125;SDS011;53956;52.442;13.284;2023-04-09T04:52:01;45.77;;;29.33;;
18125;SDS011;53956;52.442;13.284;2023-04-09T04:54:29;46.63;;;29.67;;
18125;SDS011;53956;52.442;13.284;2023-04-09T04:56:57;44.63;;;28.13;;
18125;SDS011;53956;52.442;13.284;2023-04-09T04:59:30;43.30;;;27.80;;
18125;SDS011;53956;52.442;13.284;2023-04-09T05:02:01;43.27;;;27.27;;
18125;SDS011;53956;52.442;13.284;2023-04-09T05:04:35;39.17;;;25.83;;
18125;SDS011;53956;52.442;13.284;2023-04-09T05:07:02;41.37;;;27.03;;
18125;SDS011;53956;52.442;13.284;2023-04-09T05:09:29;39.03;;;25.63;;
18125;SDS011;53956;52.442;13.284;2023-04-09T05:12:03;40.70;;;26.17;;
18125;SDS011;53956;52.442;13.284;2023-04-09T05:14:30;41.07;;;25.93;;
18125;SDS011;53956;52.442;13.284;2023-04-09T05:16:56;39.43;;;26.20;;
18125;SDS011;53956;52.442;13.284;2023-04-09T05:19:29;42.97;;;26.33;;
18125;SDS011;53956;52.442;13.284;2023-04-09T05:22:01;41.30;;;26.53;;
18125;SDS011;53956;52.442;13.284;2023-04-09T05:24:28;40.73;;;25.77;;
18125;SDS011;53956;52.442;13.284;2023-04-09T05:26:55;42.13;;;26.90;;
18125;SDS011;53956;52.442;13.284;2023-04-09T05:29:22;43.70;;;26.60;;
18125;SDS011;53956;52.442;13.284;2023-04-09T05:31:49;41.87;;;26.13;;
18125;SDS011;53956;52.442;13.284;2023-04-09T05:34:25;42.33;;;27.43;;
18125;SDS011;53956;52.442;13.284;2023-04-09T05:36:54;43.90;;;27.87;;
18125;SDS011;53956;52.442;13.284;2023-04-09T05:39:24;45.97;;;28.77;;
18125;SDS011;53956;52.442;13.284;2023-04-09T05:41:51;47.37;;;29.47;;
18125;SDS011;53956;52.442;13.284;2023-04-09T05:44:31;49.80;;;29.10;;
18125;SDS011;53956;52.442;13.284;2023-04-09T05:47:18;46.97;;;28.23;;
18125;SDS011;53956;52.442;13.284;2023-04-09T05:49:56;47.03;;;27.97;;
18125;SDS011;53956;52.442;13.284;2023-04-09T05:52:22;46.23;;;28.33;;
18125;SDS011;53956;52.442;13.284;2023-04-09T05:54:51;44.27;;;27.07;;
18125;SDS011;53956;52.442;13.284;2023-04-09T05:57:24;43.73;;;28.23;;
18125;SDS011;53956;52.442;13.284;2023-04-09T05:59:57;41.90;;;27.00;;
18125;SDS011;53956;52.442;13.284;2023-04-09T06:02:23;41.93;;;27.70;;
18125;SDS011;53956;52.442;13.284;2023-04-09T06:04:52;43.37;;;28.43;;
18125;SDS011;53956;52.442;13.284;2023-04-09T06:07:19;42.97;;;28.80;;
18125;SDS011;53956;52.442;13.284;2023-04-09T06:09:46;41.23;;;27.57;;
18125;SDS011;53956;52.442;13.284;2023-04-09T06:12:14;39.57;;;27.47;;
18125;SDS011;53956;52.442;13.284;2023-04-09T06:14:41;39.13;;;26.87;;
18125;SDS011;53956;52.442;13.284;2023-04-09T06:17:08;34.63;;;25.90;;
18125;SDS011;53956;52.442;13.284;2023-04-09T06:19:35;37.43;;;26.97;;
18125;SDS011;53956;52.442;13.284;2023-04-09T06:22:01;39.23;;;26.50;;
18125;SDS011;53956;52.442;13.284;2023-04-09T06:24:29;37.93;;;26.13;;
18125;SDS011;53956;52.442;13.284;2023-04-09T06:26:56;37.30;;;26.27;;
18125;SDS011;53956;52.442;13.284;2023-04-09T06:29:24;34.58;;;26.17;;
18125;SDS011;53956;52.442;13.284;2023-04-09T06:31:51;34.65;;;25.20;;
18125;SDS011;53956;52.442;13.284;2023-04-09T06:34:18;36.63;;;26.48;;
18125;SDS011;53956;52.442;13.284;2023-04-09T06:36:44;36.20;;;26.83;;
18125;SDS011;53956;52.442;13.284;2023-04-09T06:39:11;37.05;;;27.73;;
18125;SDS011;53956;52.442;13.284;2023-04-09T06:41:38;38.92;;;28.05;;
18125;SDS011;53956;52.442;13.284;2023-04-09T06:44:19;42.70;;;29.58;;
18125;SDS011;53956;52.442;13.284;2023-04-09T06:46:47;36.33;;;25.58;;
18125;SDS011;53956;52.442;13.284;2023-04-09T06:49:14;41.20;;;29.33;;
18125;SDS011;53956;52.442;13.284;2023-04-09T06:51:40;41.40;;;28.85;;
18125;SDS011;53956;52.442;13.284;2023-04-09T06:54:07;43.90;;;29.23;;
18125;SDS011;53956;52.442;13.284;2023-04-09T06:56:34;44.90;;;29.30;;
18125;SDS011;53956;52.442;13.284;2023-04-09T06:59:00;46.43;;;30.13;;
18125;SDS011;53956;52.442;13.284;2023-04-09T07:01:27;46.63;;;30.60;;
18125;SDS011;53956;52.442;13.284;2023-04-09T07:03:55;44.20;;;29.43;;
18125;SDS011;53956;52.442;13.284;2023-04-09T07:06:22;42.87;;;29.27;;
18125;SDS011;53956;52.442;13.284;2023-04-09T07:08:49;43.53;;;29.07;;
18125;SDS011;53956;52.442;13.284;2023-04-09T07:11:15;43.80;;;29.03;;
18125;SDS011;53956;52.442;13.284;2023-04-09T07:13:42;41.93;;;28.30;;
18125;SDS011;53956;52.442;13.284;2023-04-09T07:16:08;40.33;;;27.43;;
18125;SDS011;53956;52.442;13.284;2023-04-09T07:18:35;42.63;;;28.37;;
18125;SDS011;53956;52.442;13.284;2023-04-09T07:21:03;41.03;;;26.83;;
18125;SDS011;53956;52.442;13.284;2023-04-09T07:23:32;40.57;;;27.70;;
18125;SDS011;53956;52.442;13.284;2023-04-09T07:26:00;39.10;;;26.87;;
18125;SDS011;53956;52.442;13.284;2023-04-09T07:28:27;39.43;;;26.77;;
18125;SDS011;53956;52.442;13.284;2023-04-09T07:30:54;36.50;;;26.57;;
18125;SDS011;53956;52.442;13.284;2023-04-09T07:33:20;37.57;;;26.63;;
18125;SDS011;53956;52.442;13.284;2023-04-09T07:35:47;39.43;;;26.90;;
18125;SDS011;53956;52.442;13.284;2023-04-09T07:38:15;39.67;;;27.10;;
18125;SDS011;53956;52.442;13.284;2023-04-09T07:40:42;37.63;;;25.63;;
18125;SDS011;53956;52.442;13.284;2023-04-09T07:43:09;39.00;;;26.67;;
18125;SDS011;53956;52.442;13.284;2023-04-09T07:45:35;38.63;;;26.20;;
18125;SDS011;53956;52.442;13.284;2023-04-09T07:48:02;36.37;;;25.87;;
18125;SDS011;53956;52.442;13.284;2023-04-09T07:50:29;36.07;;;25.30;;
18125;SDS011;53956;52.442;13.284;2023-04-09T07:52:56;35.50;;;25.43;;
18125;SDS011;53956;52.442;13.284;2023-04-09T07:55:24;37.67;;;25.80;;
18125;SDS011;53956;52.442;13.284;2023-04-09T07:57:50;37.17;;;25.63;;
18125;SDS011;53956;52.442;13.284;2023-04-09T08:00:17;35.40;;;25.43;;
18125;SDS011;53956;52.442;13.284;2023-04-09T08:02:44;35.40;;;24.23;;
18125;SDS011;53956;52.442;13.284;2023-04-09T08:05:11;35.85;;;25.02;;
18125;SDS011;53956;52.442;13.284;2023-04-09T08:07:38;33.80;;;24.73;;
18125;SDS011;53956;52.442;13.284;2023-04-09T08:10:05;36.53;;;25.67;;
18125;SDS011;53956;52.442;13.284;2023-04-09T08:12:33;33.95;;;24.15;;
18125;SDS011;53956;52.442;13.284;2023-04-09T08:15:00;32.97;;;23.88;;
18125;SDS011;53956;52.442;13.284;2023-04-09T08:17:28;33.38;;;23.98;;
18125;SDS011;53956;52.442;13.284;2023-04-09T08:19:55;34.83;;;25.13;;
18125;SDS011;53956;52.442;13.284;2023-04-09T08:22:21;32.92;;;24.35;;
18125;SDS011;53956;52.442;13.284;2023-04-09T08:24:49;32.95;;;23.90;;
18125;SDS011;53956;52.442;13.284;2023-04-09T08:27:16;36.15;;;24.42;;
18125;SDS011;53956;52.442;13.284;2023-04-09T08:29:44;35.75;;;25.23;;
18125;SDS011;53956;52.442;13.284;2023-04-09T08:32:11;35.17;;;25.38;;
18125;SDS011;53956;52.442;13.284;2023-04-09T08:34:38;34.13;;;24.83;;
18125;SDS011;53956;52.442;13.284;2023-04-09T08:37:05;35.67;;;25.45;;
18125;SDS011;53956;52.442;13.284;2023-04-09T08:39:32;33.97;;;24.92;;
18125;SDS011;53956;52.442;13.284;2023-04-09T08:42:00;35.45;;;23.08;;
18125;SDS011;53956;52.442;13.284;2023-04-09T08:44:27;39.83;;;24.25;;
18125;SDS011;53956;52.442;13.284;2023-04-09T08:46:56;32.70;;;23.17;;
18125;SDS011;53956;52.442;13.284;2023-04-09T08:49:24;33.22;;;23.80;;
18125;SDS011;53956;52.442;13.284;2023-04-09T08:51:51;35.35;;;24.90;;
18125;SDS011;53956;52.442;13.284;2023-04-09T08:54:18;36.50;;;24.80;;
18125;SDS011;53956;52.442;13.284;2023-04-09T08:56:44;33.58;;;24.13;;
18125;SDS011;53956;52.442;13.284;2023-04-09T08:59:13;31.15;;;22.50;;
18125;SDS011;53956;52.442;13.284;2023-04-09T09:01:41;35.47;;;23.98;;
18125;SDS011;53956;52.442;13.284;2023-04-09T09:04:09;34.63;;;24.08;;
18125;SDS011;53956;52.442;13.284;2023-04-09T09:06:36;33.70;;;24.02;;
18125;SDS011;53956;52.442;13.284;2023-04-09T09:09:05;33.60;;;23.55;;
18125;SDS011;53956;52.442;13.284;2023-04-09T09:11:34;31.30;;;23.45;;
18125;SDS011;53956;52.442;13.284;2023-04-09T09:14:02;33.05;;;24.13;;
18125;SDS011;53956;52.442;13.284;2023-04-09T09:16:30;34.35;;;25.33;;
18125;SDS011;53956;52.442;13.284;2023-04-09T09:18:59;33.42;;;24.30;;
18125;SDS011;53956;52.442;13.284;2023-04-09T09:21:28;32.08;;;23.85;;
18125;SDS011;53956;52.442;13.284;2023-04-09T09:23:55;32.55;;;24.27;;
18125;SDS011;53956;52.442;13.284;2023-04-09T09:26:23;35.67;;;24.08;;
18125;SDS011;53956;52.442;13.284;2023-04-09T09:28:51;34.45;;;25.27;;
18125;SDS011;53956;52.442;13.284;2023-04-09T09:31:19;34.30;;;24.77;;
18125;SDS011;53956;52.442;13.284;2023-04-09T09:33:47;34.03;;;24.77;;
18125;SDS011;53956;52.442;13.284;2023-04-09T09:36:14;34.33;;;24.98;;
18125;SDS011;53956;52.442;13.284;2023-04-09T09:38:57;37.45;;;26.63;;
18125;SDS011;53956;52.442;13.284;2023-04-09T09:41:27;36.47;;;25.45;;
18125;SDS011;53956;52.442;13.284;2023-04-09T09:43:54;36.80;;;25.95;;
18125;SDS011;53956;52.442;13.284;2023-04-09T09:46:21;34.80;;;25.05;;
18125;SDS011;53956;52.442;13.284;2023-04-09T09:48:50;36.80;;;25.88;;
18125;SDS011;53956;52.442;13.284;2023-04-09T09:51:16;38.97;;;27.77;;
18125;SDS011;53956;52.442;13.284;2023-04-09T09:53:45;37.22;;;26.05;;
18125;SDS011;53956;52.442;13.284;2023-04-09T09:56:20;38.10;;;26.57;;
18125;SDS011;53956;52.442;13.284;2023-04-09T09:58:52;42.90;;;28.03;;
18125;SDS011;53956;52.442;13.284;2023-04-09T10:01:28;39.87;;;27.93;;
18125;SDS011;53956;52.442;13.284;2023-04-09T10:03:55;36.77;;;26.03;;
18125;SDS011;53956;52.442;13.284;2023-04-09T10:06:24;38.13;;;27.57;;
18125;SDS011;53956;52.442;13.284;2023-04-09T10:08:51;38.30;;;27.20;;
18125;SDS011;53956;52.442;13.284;2023-04-09T10:11:23;40.27;;;27.77;;
18125;SDS011;53956;52.442;13.284;2023-04-09T10:13:50;35.67;;;25.17;;
18125;SDS011;53956;52.442;13.284;2023-04-09T10:16:21;40.00;;;27.70;;
18125;SDS011;53956;52.442;13.284;2023-04-09T10:18:48;38.77;;;27.40;;
18125;SDS011;53956;52.442;13.284;2023-04-09T10:21:16;40.67;;;28.27;;
18125;SDS011;53956;52.442;13.284;2023-04-09T10:23:51;39.30;;;27.77;;
18125;SDS011;53956;52.442;13.284;2023-04-09T10:26:19;41.00;;;28.10;;
18125;SDS011;53956;52.442;13.284;2023-04-09T10:28:48;41.30;;;28.63;;
18125;SDS011;53956;52.442;13.284;2023-04-09T10:31:43;42.30;;;28.80;;
18125;SDS011;53956;52.442;13.284;2023-04-09T10:34:17;41.60;;;27.50;;
18125;SDS011;53956;52.442;13.284;2023-04-09T10:36:48;42.67;;;29.40;;
18125;SDS011;53956;52.442;13.284;2023-04-09T10:39:17;40.30;;;28.23;;
18125;SDS011;53956;52.442;13.284;2023-04-09T10:41:43;43.60;;;28.70;;
18125;SDS011;53956;52.442;13.284;2023-04-09T10:44:20;42.73;;;28.77;;
18125;SDS011;53956;52.442;13.284;2023-04-09T10:46:48;39.83;;;28.27;;
18125;SDS011;53956;52.442;13.284;2023-04-09T10:49:18;41.83;;;28.37;;
18125;SDS011;53956;52.442;13.284;2023-04-09T10:51:52;41.10;;;27.83;;
18125;SDS011;53956;52.442;13.284;2023-04-09T10:57:17;42.30;;;27.43;;
18125;SDS011;53956;52.442;13.284;2023-04-09T10:59:47;40.33;;;27.10;;
18125;SDS011;53956;52.442;13.284;2023-04-09T11:02:34;42.90;;;28.80;;
18125;SDS011;53956;52.442;13.284;2023-04-09T11:05:30;45.80;;;29.83;;
18125;SDS011;53956;52.442;13.284;2023-04-09T11:08:02;46.17;;;29.90;;
18125;SDS011;53956;52.442;13.284;2023-04-09T11:10:30;43.87;;;30.00;;
18125;SDS011;53956;52.442;13.284;2023-04-09T11:12:57;43.53;;;28.77;;
18125;SDS011;53956;52.442;13.284;2023-04-09T11:15:26;42.63;;;28.27;;
18125;SDS011;53956;52.442;13.284;2023-04-09T11:17:53;36.17;;;23.43;;
18125;SDS011;53956;52.442;13.284;2023-04-09T11:20:22;44.53;;;29.10;;
18125;SDS011;53956;52.442;13.284;2023-04-09T11:22:51;45.70;;;28.37;;
18125;SDS011;53956;52.442;13.284;2023-04-09T11:25:19;40.67;;;26.57;;
18125;SDS011;53956;52.442;13.284;2023-04-09T11:27:46;39.97;;;26.90;;
18125;SDS011;53956;52.442;13.284;2023-04-09T11:30:14;41.33;;;27.67;;
18125;SDS011;53956;52.442;13.284;2023-04-09T11:32:42;41.27;;;27.30;;
18125;SDS011;53956;52.442;13.284;2023-04-09T11:35:10;42.70;;;28.13;;
18125;SDS011;53956;52.442;13.284;2023-04-09T11:37:38;43.07;;;28.23;;
18125;SDS011;53956;52.442;13.284;2023-04-09T11:40:06;45.70;;;29.13;;
18125;SDS011;53956;52.442;13.284;2023-04-09T11:42:39;43.30;;;27.93;;
18125;SDS011;53956;52.442;13.284;2023-04-09T11:45:06;42.33;;;28.07;;
18125;SDS011;53956;52.442;13.284;2023-04-09T11:47:34;41.60;;;26.53;;
18125;SDS011;53956;52.442;13.284;2023-04-09T11:50:04;39.57;;;26.60;;
18125;SDS011;53956;52.442;13.284;2023-04-09T11:52:32;41.87;;;27.10;;
18125;SDS011;53956;52.442;13.284;2023-04-09T11:54:59;44.27;;;26.90;;
18125;SDS011;53956;52.442;13.284;2023-04-09T11:57:34;39.43;;;25.73;;
18125;SDS011;53956;52.442;13.284;2023-04-09T12:00:04;40.67;;;26.10;;
18125;SDS011;53956;52.442;13.284;2023-04-09T12:02:33;37.30;;;24.90;;
18125;SDS011;53956;52.442;13.284;2023-04-09T12:05:06;36.60;;;24.67;;
18125;SDS011;53956;52.442;13.284;2023-04-09T12:07:38;38.97;;;25.20;;
18125;SDS011;53956;52.442;13.284;2023-04-09T12:10:05;39.60;;;25.87;;
18125;SDS011;53956;52.442;13.284;2023-04-09T12:12:40;34.70;;;23.50;;
18125;SDS011;53956;52.442;13.284;2023-04-09T12:15:11;37.27;;;23.40;;
18125;SDS011;53956;52.442;13.284;2023-04-09T12:17:48;33.83;;;23.90;;
18125;SDS011;53956;52.442;13.284;2023-04-09T12:20:27;36.37;;;23.37;;
18125;SDS011;53956;52.442;13.284;2023-04-09T12:22:55;32.57;;;21.73;;
18125;SDS011;53956;52.442;13.284;2023-04-09T12:25:24;33.53;;;21.93;;
18125;SDS011;53956;52.442;13.284;2023-04-09T12:27:50;31.93;;;21.23;;
18125;SDS011;53956;52.442;13.284;2023-04-09T12:30:18;28.43;;;19.53;;
18125;SDS011;53956;52.442;13.284;2023-04-09T12:32:45;33.17;;;21.47;;
18125;SDS011;53956;52.442;13.284;2023-04-09T12:35:12;33.73;;;21.83;;
18125;SDS011;53956;52.442;13.284;2023-04-09T12:37:40;32.43;;;20.93;;
18125;SDS011;53956;52.442;13.284;2023-04-09T12:40:08;31.43;;;20.63;;
18125;SDS011;53956;52.442;13.284;2023-04-09T12:42:36;32.23;;;20.90;;
18125;SDS011;53956;52.442;13.284;2023-04-09T12:45:04;30.93;;;21.03;;
18125;SDS011;53956;52.442;13.284;2023-04-09T12:47:31;31.70;;;20.83;;
18125;SDS011;53956;52.442;13.284;2023-04-09T12:49:58;27.43;;;18.70;;
18125;SDS011;53956;52.442;13.284;2023-04-09T12:52:24;27.83;;;18.93;;
18125;SDS011;53956;52.442;13.284;2023-04-09T12:54:52;28.67;;;18.43;;
18125;SDS011;53956;52.442;13.284;2023-04-09T12:57:19;25.93;;;17.40;;
18125;SDS011;53956;52.442;13.284;2023-04-09T12:59:46;27.37;;;18.63;;
18125;SDS011;53956;52.442;13.284;2023-04-09T13:02:12;26.17;;;17.97;;
18125;SDS011;53956;52.442;13.284;2023-04-09T13:04:39;26.40;;;17.77;;
18125;SDS011;53956;52.442;13.284;2023-04-09T13:07:06;26.77;;;16.97;;
18125;SDS011;53956;52.442;13.284;2023-04-09T13:09:34;25.07;;;16.63;;
18125;SDS011;53956;52.442;13.284;2023-04-09T13:12:02;25.93;;;17.40;;
18125;SDS011;53956;52.442;13.284;2023-04-09T13:14:28;25.47;;;17.20;;
18125;SDS011;53956;52.442;13.284;2023-04-09T13:16:55;28.73;;;18.50;;
18125;SDS011;53956;52.442;13.284;2023-04-09T13:19:22;26.07;;;17.57;;
18125;SDS011;53956;52.442;13.284;2023-04-09T13:21:49;24.93;;;16.33;;
18125;SDS011;53956;52.442;13.284;2023-04-09T13:24:15;22.63;;;15.33;;
18125;SDS011;53956;52.442;13.284;2023-04-09T13:26:42;20.37;;;14.73;;
18125;SDS011;53956;52.442;13.284;2023-04-09T13:29:10;22.17;;;14.90;;
18125;SDS011;53956;52.442;13.284;2023-04-09T13:31:37;21.70;;;15.07;;
18125;SDS011;53956;52.442;13.284;2023-04-09T13:34:04;19.97;;;13.43;;
18125;SDS011;53956;52.442;13.284;2023-04-09T13:36:31;20.00;;;14.03;;
18125;SDS011;53956;52.442;13.284;2023-04-09T13:38:59;18.27;;;13.40;;
18125;SDS011;53956;52.442;13.284;2023-04-09T13:41:28;21.87;;;14.77;;
18125;SDS011;53956;52.442;13.284;2023-04-09T13:43:56;23.23;;;15.43;;
18125;SDS011;53956;52.442;13.284;2023-04-09T13:46:24;22.53;;;15.33;;
18125;SDS011;53956;52.442;13.284;2023-04-09T13:48:51;23.13;;;14.67;;
18125;SDS011;53956;52.442;13.284;2023-04-09T13:51:19;21.10;;;14.47;;
18125;SDS011;53956;52.442;13.284;2023-04-09T13:53:46;20.93;;;14.90;;
18125;SDS011;53956;52.442;13.284;2023-04-09T13:56:13;19.80;;;13.83;;
18125;SDS011;53956;52.442;13.284;2023-04-09T13:58:40;17.77;;;11.63;;
18125;SDS011;53956;52.442;13.284;2023-04-09T14:01:07;19.47;;;12.90;;
18125;SDS011;53956;52.442;13.284;2023-04-09T14:03:35;20.50;;;13.70;;
18125;SDS011;53956;52.442;13.284;2023-04-09T14:06:04;21.03;;;14.20;;
18125;SDS011;53956;52.442;13.284;2023-04-09T14:08:31;20.23;;;14.17;;
18125;SDS011;53956;52.442;13.284;2023-04-09T14:10:58;18.47;;;13.43;;
18125;SDS011;53956;52.442;13.284;2023-04-09T14:13:24;15.60;;;11.23;;
18125;SDS011;53956;52.442;13.284;2023-04-09T14:15:51;15.60;;;10.93;;
18125;SDS011;53956;52.442;13.284;2023-04-09T14:18:18;15.30;;;10.03;;
18125;SDS011;53956;52.442;13.284;2023-04-09T14:20:46;16.23;;;10.97;;